createdAt,value
2023-04-16T00:02:19.141Z,84.01
2023-04-16T00:05:22.240Z,83.76
2023-04-16T00:08:24.744Z,84.09
2023-04-16T00:11:27.641Z,84.23
2023-04-16T00:14:30.120Z,84.21
2023-04-16T00:17:33.037Z,83.81
2023-04-16T00:20:35.311Z,84.46
2023-04-16T00:23:38.240Z,84.58
2023-04-16T00:26:41.048Z,84.76
2023-04-16T00:29:43.976Z,84.87
2023-04-16T00:32:46.355Z,84.92
2023-04-16T00:35:49.268Z,85.04
2023-04-16T00:38:51.734Z,85.06
2023-04-16T00:41:54.773Z,84.95
2023-04-16T00:44:57.096Z,84.52
2023-04-16T00:48:00.811Z,84.55
2023-04-16T00:51:07.119Z,84.80
2023-04-16T00:54:10.083Z,84.71
2023-04-16T00:57:13.439Z,84.93
2023-04-16T01:00:17.119Z,84.75
2023-04-16T01:03:19.489Z,85.19
2023-04-16T01:06:23.489Z,85.28
2023-04-16T01:09:25.873Z,85.27
2023-04-16T01:12:28.763Z,84.83
2023-04-16T01:15:31.066Z,84.38
2023-04-16T01:18:34.521Z,84.52
2023-04-16T01:21:37.014Z,84.99
2023-04-16T01:24:40.590Z,85.00
2023-04-16T01:27:45.506Z,85.47
2023-04-16T01:30:48.619Z,85.30
2023-04-16T01:33:51.913Z,85.38
2023-04-16T01:36:54.985Z,85.53
2023-04-16T01:39:57.260Z,85.46
2023-04-16T01:43:00.508Z,85.61
2023-04-16T01:46:29.394Z,85.69
2023-04-16T01:49:32.648Z,85.98
2023-04-16T01:52:35.041Z,86.00
2023-04-16T01:55:37.978Z,85.69
2023-04-16T01:58:41.413Z,85.65
2023-04-16T02:01:44.506Z,85.65
2023-04-16T02:04:47.223Z,85.50
2023-04-16T02:07:49.847Z,85.11
2023-04-16T02:10:52.520Z,85.26
2023-04-16T02:13:55.316Z,85.31
2023-04-16T02:16:58.272Z,85.24
2023-04-16T02:20:05.670Z,85.03
2023-04-16T02:23:08.920Z,84.97
2023-04-16T02:26:13.567Z,85.24
2023-04-16T02:29:16.778Z,85.27
2023-04-16T02:32:19.826Z,85.10
2023-04-16T02:35:22.729Z,85.23
2023-04-16T02:38:25.711Z,84.99
2023-04-16T02:41:28.314Z,84.83
2023-04-16T02:44:30.957Z,84.72
2023-04-16T02:47:33.583Z,85.07
2023-04-16T02:50:36.247Z,85.34
2023-04-16T02:53:38.871Z,85.28
2023-04-16T02:56:41.616Z,85.31
2023-04-16T02:59:44.164Z,85.32
2023-04-16T03:02:46.828Z,85.14
2023-04-16T03:05:49.680Z,84.74
2023-04-16T03:08:52.252Z,84.79
2023-04-16T03:11:54.836Z,84.48
2023-04-16T03:14:57.705Z,84.75
2023-04-16T03:18:00.630Z,84.87
2023-04-16T03:21:03.851Z,84.89
2023-04-16T03:24:07.464Z,84.90
2023-04-16T03:27:10.070Z,85.35
2023-04-16T03:30:13.888Z,85.37
2023-04-16T03:33:16.710Z,84.77
2023-04-16T03:36:19.474Z,85.22
2023-04-16T03:39:22.878Z,85.34
2023-04-16T03:42:25.834Z,85.42
2023-04-16T03:45:28.616Z,84.85
2023-04-16T03:48:31.314Z,84.73
2023-04-16T03:51:34.820Z,84.49
2023-04-16T03:54:37.419Z,84.21
2023-04-16T03:57:41.707Z,84.28
2023-04-16T04:00:45.387Z,83.96
2023-04-16T04:03:48.731Z,84.27
2023-04-16T04:06:51.479Z,84.62
2023-04-16T04:09:54.538Z,84.33
2023-04-16T04:12:57.161Z,84.15
2023-04-16T04:16:00.349Z,84.18
2023-04-16T04:19:03.068Z,83.86
2023-04-16T04:22:05.943Z,84.46
2023-04-16T04:25:09.950Z,83.83
2023-04-16T04:28:12.789Z,84.56
2023-04-16T04:31:15.474Z,84.50
2023-04-16T04:34:19.201Z,84.53
2023-04-16T04:37:21.498Z,84.57
2023-04-16T04:40:24.378Z,84.56
2023-04-16T04:43:28.159Z,84.12
2023-04-16T04:46:31.121Z,84.25
2023-04-16T04:49:33.502Z,84.70
2023-04-16T04:52:36.453Z,84.32
2023-04-16T04:55:39.326Z,83.99
2023-04-16T04:58:42.491Z,83.60
2023-04-16T05:01:44.889Z,83.89
2023-04-16T05:04:47.755Z,83.73
2023-04-16T05:07:50.265Z,83.99
2023-04-16T05:10:53.156Z,84.17
2023-04-16T05:13:55.462Z,83.56
2023-04-16T05:16:58.400Z,83.38
2023-04-16T05:20:00.837Z,83.16
2023-04-16T05:23:03.697Z,83.01
2023-04-16T05:26:05.962Z,82.94
2023-04-16T05:29:08.980Z,82.95
2023-04-16T05:32:11.502Z,83.16
2023-04-16T05:35:17.210Z,83.15
2023-04-16T05:38:19.850Z,83.02
2023-04-16T05:41:22.706Z,83.66
2023-04-16T05:44:25.831Z,83.14
2023-04-16T05:47:28.692Z,82.87
2023-04-16T05:50:31.150Z,82.76
2023-04-16T05:53:34.073Z,82.49
2023-04-16T05:56:36.324Z,82.15
2023-04-16T05:59:39.228Z,82.34
2023-04-16T06:02:41.881Z,82.08
2023-04-16T06:05:45.966Z,82.04
2023-04-16T06:08:48.240Z,81.64
2023-04-16T06:11:51.150Z,81.52
2023-04-16T06:14:53.631Z,81.46
2023-04-16T06:17:56.972Z,81.16
2023-04-16T06:21:00.441Z,80.99
2023-04-16T06:24:03.395Z,80.92
2023-04-16T06:27:05.652Z,80.81
2023-04-16T06:30:13.130Z,80.79
2023-04-16T06:33:15.489Z,80.85
2023-04-16T06:36:18.420Z,80.72
2023-04-16T06:39:21.861Z,79.88
2023-04-16T06:42:24.891Z,79.37
2023-04-16T06:45:27.236Z,78.67
2023-04-16T06:48:30.496Z,78.72
2023-04-16T06:51:33.199Z,77.90
2023-04-16T06:54:36.262Z,76.70
2023-04-16T06:57:38.605Z,76.35
2023-04-16T07:00:41.462Z,75.38
2023-04-16T07:03:44.182Z,75.36
2023-04-16T07:06:47.119Z,74.68
2023-04-16T07:09:49.414Z,73.09
2023-04-16T07:12:52.316Z,72.22
2023-04-16T07:15:54.720Z,71.39
2023-04-16T07:18:57.716Z,69.97
2023-04-16T07:22:00.423Z,70.12
2023-04-16T07:25:03.481Z,70.30
2023-04-16T07:28:06.100Z,67.88
2023-04-16T07:31:09.375Z,66.85
2023-04-16T07:34:11.748Z,65.19
2023-04-16T07:37:14.699Z,63.19
2023-04-16T07:40:17.053Z,63.52
2023-04-16T07:43:19.914Z,63.52
2023-04-16T07:46:22.269Z,63.89
2023-04-16T07:49:25.351Z,64.94
2023-04-16T07:52:27.682Z,64.80
2023-04-16T07:55:30.535Z,62.24
2023-04-16T07:58:32.919Z,63.51
2023-04-16T08:01:36.005Z,61.61
2023-04-16T08:04:38.841Z,62.22
2023-04-16T08:07:41.597Z,63.78
2023-04-16T08:10:44.445Z,63.05
2023-04-16T08:13:47.156Z,63.92
2023-04-16T08:16:49.954Z,62.48
2023-04-16T08:19:52.573Z,62.56
2023-04-16T08:22:55.266Z,62.29
2023-04-16T08:25:58.140Z,61.26
2023-04-16T08:29:00.868Z,61.28
2023-04-16T08:32:03.490Z,57.37
2023-04-16T08:35:06.474Z,57.22
2023-04-16T08:38:09.117Z,58.15
2023-04-16T08:41:12.558Z,59.13
2023-04-16T08:44:20.069Z,59.33
2023-04-16T08:47:24.197Z,59.18
2023-04-16T08:50:27.337Z,55.77
2023-04-16T08:53:35.767Z,56.03
2023-04-16T08:56:42.878Z,53.71
2023-04-16T08:59:49.012Z,55.11
2023-04-16T09:02:52.135Z,54.73
2023-04-16T09:05:55.658Z,56.55
2023-04-16T09:08:59.939Z,54.34
2023-04-16T09:12:02.627Z,54.20
2023-04-16T09:15:06.123Z,53.38
2023-04-16T09:18:08.881Z,52.98
2023-04-16T09:21:11.469Z,52.39
2023-04-16T09:24:14.448Z,52.16
2023-04-16T09:27:17.345Z,52.73
2023-04-16T09:30:24.486Z,53.55
2023-04-16T09:33:27.026Z,54.02
2023-04-16T09:36:30.121Z,54.84
2023-04-16T09:39:32.858Z,55.84
2023-04-16T09:42:37.065Z,57.24
2023-04-16T09:45:52.736Z,56.84
2023-04-16T09:48:55.385Z,57.91
2023-04-16T09:51:59.962Z,58.22
2023-04-16T09:55:02.597Z,58.78
2023-04-16T09:58:05.175Z,58.71
2023-04-16T10:01:09.066Z,59.07
2023-04-16T10:04:12.165Z,58.77
2023-04-16T10:07:14.788Z,57.90
2023-04-16T10:10:17.720Z,57.44
2023-04-16T10:13:20.122Z,58.08
2023-04-16T10:16:23.670Z,56.35
2023-04-16T10:19:26.987Z,55.97
2023-04-16T10:22:32.887Z,53.06
2023-04-16T10:25:35.358Z,49.20
2023-04-16T10:28:38.437Z,51.11
2023-04-16T10:31:41.661Z,48.02
2023-04-16T10:34:44.719Z,45.89
2023-04-16T10:37:47.540Z,45.45
2023-04-16T10:40:50.804Z,42.61
2023-04-16T10:43:53.430Z,41.85
2023-04-16T10:46:56.355Z,40.67
2023-04-16T10:49:59.011Z,40.35
2023-04-16T10:53:17.777Z,40.56
2023-04-16T10:56:27.615Z,38.87
2023-04-16T10:59:31.404Z,38.38
2023-04-16T11:02:34.063Z,38.10
2023-04-16T11:05:47.065Z,38.16
2023-04-16T11:08:55.054Z,37.70
2023-04-16T11:11:58.659Z,37.04
2023-04-16T11:15:05.968Z,37.63
2023-04-16T11:18:09.879Z,36.17
2023-04-16T11:21:12.780Z,35.25
2023-04-16T11:24:16.276Z,34.89
2023-04-16T11:27:18.687Z,37.48
2023-04-16T11:30:39.974Z,33.65
2023-04-16T11:33:42.764Z,33.46
2023-04-16T11:36:49.554Z,35.65
2023-04-16T11:39:52.853Z,36.22
2023-04-16T11:42:56.213Z,37.95
2023-04-16T11:46:00.671Z,37.82
2023-04-16T11:49:03.733Z,37.95
2023-04-16T11:52:06.256Z,39.31
2023-04-16T11:55:09.210Z,38.39
2023-04-16T11:58:12.855Z,35.96
2023-04-16T12:01:20.030Z,36.45
2023-04-16T12:04:25.111Z,35.18
2023-04-16T12:07:27.883Z,36.78
2023-04-16T12:10:31.195Z,36.98
2023-04-16T12:13:39.925Z,37.82
2023-04-16T12:16:42.745Z,38.66
2023-04-16T12:20:08.423Z,38.11
2023-04-16T12:23:11.473Z,38.13
2023-04-16T12:26:14.387Z,36.58
2023-04-16T12:29:18.013Z,36.77
2023-04-16T12:32:21.307Z,36.92
2023-04-16T12:35:33.854Z,43.46
2023-04-16T12:38:36.654Z,38.12
2023-04-16T12:41:40.162Z,40.75
2023-04-16T12:44:42.719Z,37.89
2023-04-16T12:47:45.543Z,39.49
2023-04-16T12:50:48.214Z,39.45
2023-04-16T12:53:51.019Z,39.05
2023-04-16T12:56:53.544Z,40.20
2023-04-16T12:59:59.477Z,39.86
2023-04-16T13:03:02.237Z,39.17
2023-04-16T13:06:05.043Z,38.89
2023-04-16T13:09:07.888Z,37.72
2023-04-16T13:12:10.648Z,37.16
2023-04-16T13:15:13.238Z,36.87
2023-04-16T13:18:15.932Z,36.21
2023-04-16T13:21:18.592Z,36.57
2023-04-16T13:24:21.350Z,36.95
2023-04-16T13:27:24.039Z,36.83
2023-04-16T13:30:29.297Z,37.07
2023-04-16T13:33:31.976Z,39.39
2023-04-16T13:36:35.323Z,39.90
2023-04-16T13:39:37.935Z,42.20
2023-04-16T13:42:40.707Z,39.70
2023-04-16T13:45:43.437Z,40.65
2023-04-16T13:48:49.099Z,40.87
2023-04-16T13:51:51.727Z,40.88
2023-04-16T13:54:54.349Z,42.34
2023-04-16T13:57:57.236Z,40.97
2023-04-16T14:01:00.429Z,41.10
2023-04-16T14:04:06.808Z,42.03
2023-04-16T14:07:09.483Z,42.91
2023-04-16T14:10:12.458Z,41.87
2023-04-16T14:13:15.242Z,41.65
2023-04-16T14:16:18.204Z,41.91
2023-04-16T14:19:20.525Z,41.71
2023-04-16T14:22:23.413Z,44.08
2023-04-16T14:25:26.279Z,42.21
2023-04-16T14:28:29.221Z,43.11
2023-04-16T14:31:32.381Z,42.78
2023-04-16T14:34:35.342Z,42.97
2023-04-16T14:37:38.459Z,43.05
2023-04-16T14:40:41.425Z,42.90
2023-04-16T14:43:44.411Z,43.42
2023-04-16T14:46:47.258Z,43.47
2023-04-16T14:49:49.756Z,42.48
2023-04-16T14:52:54.539Z,42.32
2023-04-16T14:55:59.001Z,41.93
2023-04-16T14:59:02.301Z,41.67
2023-04-16T15:02:04.835Z,43.99
2023-04-16T15:05:10.555Z,43.48
2023-04-16T15:08:12.928Z,44.30
2023-04-16T15:11:15.797Z,43.84
2023-04-16T15:14:18.243Z,41.19
2023-04-16T15:17:21.600Z,41.71
2023-04-16T15:20:24.488Z,42.13
2023-04-16T15:23:27.735Z,41.23
2023-04-16T15:26:30.385Z,41.82
2023-04-16T15:29:33.276Z,40.87
2023-04-16T15:32:36.550Z,40.88
2023-04-16T15:35:41.269Z,40.72
2023-04-16T15:38:43.603Z,41.07
2023-04-16T15:41:59.880Z,40.08
2023-04-16T15:45:04.177Z,39.64
2023-04-16T15:48:07.265Z,40.25
2023-04-16T15:51:10.664Z,40.07
2023-04-16T15:54:13.602Z,40.14
2023-04-16T15:57:15.940Z,40.30
2023-04-16T16:00:19.170Z,40.65
2023-04-16T16:03:22.287Z,41.14
2023-04-16T16:06:25.172Z,40.85
2023-04-16T16:09:28.042Z,40.85
2023-04-16T16:12:31.241Z,41.26
2023-04-16T16:15:34.142Z,42.32
2023-04-16T16:18:36.974Z,42.95
2023-04-16T16:21:39.555Z,44.67
2023-04-16T16:24:42.201Z,43.08
2023-04-16T16:27:44.900Z,42.82
2023-04-16T16:30:47.663Z,43.75
2023-04-16T16:33:50.277Z,44.04
2023-04-16T16:36:52.808Z,44.34
2023-04-16T16:39:55.392Z,44.27
2023-04-16T16:42:58.019Z,44.46
2023-04-16T16:46:00.793Z,45.12
2023-04-16T16:49:05.260Z,45.22
2023-04-16T16:52:07.883Z,45.30
2023-04-16T16:55:11.158Z,45.72
2023-04-16T16:58:13.907Z,45.65
2023-04-16T17:01:16.607Z,45.40
2023-04-16T17:04:20.511Z,45.84
2023-04-16T17:07:23.281Z,46.03
2023-04-16T17:10:26.124Z,45.63
2023-04-16T17:13:28.958Z,46.04
2023-04-16T17:16:31.806Z,48.04
2023-04-16T17:19:34.562Z,46.66
2023-04-16T17:22:37.901Z,47.89
2023-04-16T17:25:40.518Z,48.11
2023-04-16T17:28:43.130Z,46.95
2023-04-16T17:31:45.752Z,46.78
2023-04-16T17:34:48.328Z,47.97
2023-04-16T17:37:51.448Z,48.03
2023-04-16T17:40:54.173Z,48.19
2023-04-16T17:43:56.774Z,48.21
2023-04-16T17:46:59.436Z,48.72
2023-04-16T17:50:02.396Z,49.01
2023-04-16T17:53:05.293Z,49.12
2023-04-16T17:56:08.077Z,49.30
2023-04-16T17:59:10.683Z,49.98
2023-04-16T18:02:13.619Z,49.51
2023-04-16T18:05:16.546Z,49.64
2023-04-16T18:08:19.131Z,49.74
2023-04-16T18:11:21.787Z,50.09
2023-04-16T18:14:25.132Z,50.72
2023-04-16T18:17:27.888Z,51.50
2023-04-16T18:20:30.697Z,52.08
2023-04-16T18:23:33.377Z,52.01
2023-04-16T18:26:36.305Z,52.94
2023-04-16T18:29:40.282Z,53.14
2023-04-16T18:33:00.441Z,53.51
2023-04-16T18:36:06.628Z,54.06
2023-04-16T18:39:09.472Z,54.36
2023-04-16T18:42:12.104Z,54.54
2023-04-16T18:45:20.947Z,54.87
2023-04-16T18:48:24.294Z,55.47
2023-04-16T18:51:27.411Z,55.81
2023-04-16T18:54:30.068Z,55.77
2023-04-16T18:57:32.915Z,56.05
2023-04-16T19:00:35.596Z,55.94
2023-04-16T19:03:38.683Z,56.24
2023-04-16T19:06:41.510Z,56.28
2023-04-16T19:09:44.209Z,56.53
2023-04-16T19:12:46.814Z,55.24
2023-04-16T19:15:49.527Z,55.40
2023-04-16T19:18:52.296Z,54.60
2023-04-16T19:21:54.892Z,55.96
2023-04-16T19:24:57.563Z,55.11
2023-04-16T19:28:00.217Z,55.33
2023-04-16T19:31:02.902Z,55.09
2023-04-16T19:34:05.698Z,55.29
2023-04-16T19:37:08.487Z,55.37
2023-04-16T19:40:11.347Z,55.37
2023-04-16T19:43:14.049Z,56.01
2023-04-16T19:46:16.790Z,56.24
2023-04-16T19:49:19.526Z,55.94
2023-04-16T19:52:22.170Z,55.88
2023-04-16T19:55:24.860Z,55.95
2023-04-16T19:58:27.488Z,56.33
2023-04-16T20:01:32.834Z,56.14
2023-04-16T20:04:36.036Z,56.52
2023-04-16T20:07:38.486Z,56.34
2023-04-16T20:10:41.596Z,56.04
2023-04-16T20:13:48.085Z,55.86
2023-04-16T20:16:52.102Z,55.91
2023-04-16T20:19:58.197Z,55.87
2023-04-16T20:23:01.208Z,58.01
2023-04-16T20:26:05.513Z,58.85
2023-04-16T20:29:11.999Z,59.85
2023-04-16T20:32:15.430Z,57.84
2023-04-16T20:35:18.434Z,57.35
2023-04-16T20:38:23.872Z,57.29
2023-04-16T20:41:27.412Z,55.77
2023-04-16T20:44:40.543Z,57.05
2023-04-16T20:47:43.747Z,55.79
2023-04-16T20:50:47.602Z,56.99
2023-04-16T20:53:52.168Z,57.04
2023-04-16T20:56:59.783Z,57.97
2023-04-16T21:00:04.428Z,57.46
2023-04-16T21:03:07.088Z,57.35
2023-04-16T21:06:12.885Z,58.49
2023-04-16T21:09:16.669Z,55.32
2023-04-16T21:12:19.576Z,57.01
2023-04-16T21:15:21.950Z,55.84
2023-04-16T21:18:27.233Z,56.21
2023-04-16T21:21:29.786Z,57.05
2023-04-16T21:24:32.689Z,55.93
2023-04-16T21:27:34.977Z,56.70
2023-04-16T21:30:38.432Z,57.24
2023-04-16T21:33:41.083Z,55.97
2023-04-16T21:36:44.060Z,55.63
2023-04-16T21:39:46.440Z,55.47
2023-04-16T21:42:49.385Z,54.97
2023-04-16T21:45:54.958Z,55.62
2023-04-16T21:48:57.885Z,55.87
2023-04-16T21:52:02.544Z,56.93
2023-04-16T21:55:06.578Z,56.62
2023-04-16T21:58:08.926Z,56.85
2023-04-16T22:01:11.843Z,56.57
2023-04-16T22:04:14.540Z,56.24
2023-04-16T22:07:17.464Z,57.34
2023-04-16T22:10:20.341Z,56.12
2023-04-16T22:13:25.131Z,56.21
2023-04-16T22:16:27.758Z,56.97
2023-04-16T22:19:30.423Z,57.36
2023-04-16T22:22:33.345Z,56.59
2023-04-16T22:25:36.029Z,56.74
2023-04-16T22:28:38.661Z,55.59
2023-04-16T22:31:41.344Z,55.49
2023-04-16T22:34:44.082Z,55.39
2023-04-16T22:37:46.699Z,55.75
2023-04-16T22:40:49.356Z,56.17
2023-04-16T22:43:52.565Z,56.42
2023-04-16T22:46:55.244Z,55.82
2023-04-16T22:49:57.843Z,56.32
2023-04-16T22:53:00.432Z,54.96
2023-04-16T22:56:03.012Z,54.97
2023-04-16T22:59:06.040Z,55.03
2023-04-16T23:02:08.603Z,56.31
2023-04-16T23:05:11.860Z,55.43
2023-04-16T23:08:14.589Z,55.99
2023-04-16T23:11:17.325Z,55.43
2023-04-16T23:14:21.286Z,55.41
2023-04-16T23:17:24.003Z,56.50
2023-04-16T23:20:26.640Z,56.66
2023-04-16T23:23:29.600Z,55.69
2023-04-16T23:26:32.873Z,55.29
2023-04-16T23:29:35.449Z,56.10
2023-04-16T23:32:38.122Z,56.89
2023-04-16T23:35:40.941Z,56.58
2023-04-16T23:38:43.519Z,55.74
2023-04-16T23:41:46.252Z,55.57
2023-04-16T23:44:48.802Z,55.46
2023-04-16T23:47:51.523Z,55.90
2023-04-16T23:50:54.235Z,56.34
2023-04-16T23:53:56.787Z,56.35
2023-04-16T23:56:59.376Z,56.35
